sensor_id;sensor_type;location;lat;lon;timestamp;pressure;altitude;pressure_sealevel;temperature;humidity
84760;BME280;74983;51.084;11.086;2024-03-08T00:00:45;100487.22;;;0.15;80.22
84760;BME280;74983;51.084;11.086;2024-03-08T00:03:11;100482.31;;;0.05;79.97
84760;BME280;74983;51.084;11.086;2024-03-08T00:05:36;100480.88;;;-0.09;81.31
84760;BME280;74983;51.084;11.086;2024-03-08T00:08:04;100474.22;;;-0.17;82.14
84760;BME280;74983;51.084;11.086;2024-03-08T00:10:29;100471.94;;;-0.31;82.23
84760;BME280;74983;51.084;11.086;2024-03-08T00:12:55;100474.81;;;-0.46;81.53
84760;BME280;74983;51.084;11.086;2024-03-08T00:15:20;100474.84;;;-0.49;81.52
84760;BME280;74983;51.084;11.086;2024-03-08T00:17:48;100471.50;;;-0.52;82.54
84760;BME280;74983;51.084;11.086;2024-03-08T00:20:13;100470.81;;;-0.60;82.36
84760;BME280;74983;51.084;11.086;2024-03-08T00:22:39;100475.28;;;-0.70;82.80
84760;BME280;74983;51.084;11.086;2024-03-08T00:25:05;100470.34;;;-0.80;82.61
84760;BME280;74983;51.084;11.086;2024-03-08T00:27:31;100474.66;;;-0.85;84.42
84760;BME280;74983;51.084;11.086;2024-03-08T00:29:57;100470.56;;;-0.92;83.90
84760;BME280;74983;51.084;11.086;2024-03-08T00:32:22;100473.03;;;-0.88;84.34
84760;BME280;74983;51.084;11.086;2024-03-08T00:34:49;100469.53;;;-0.82;83.51
84760;BME280;74983;51.084;11.086;2024-03-08T00:37:17;100471.19;;;-0.81;84.01
84760;BME280;74983;51.084;11.086;2024-03-08T00:39:42;100466.81;;;-0.75;83.54
84760;BME280;74983;51.084;11.086;2024-03-08T00:42:07;100468.56;;;-0.77;82.90
84760;BME280;74983;51.084;11.086;2024-03-08T00:44:33;100457.56;;;-0.80;84.81
84760;BME280;74983;51.084;11.086;2024-03-08T00:46:58;100462.78;;;-0.86;84.19
84760;BME280;74983;51.084;11.086;2024-03-08T00:49:24;100460.25;;;-0.88;84.85
84760;BME280;74983;51.084;11.086;2024-03-08T00:51:49;100454.97;;;-0.79;83.28
84760;BME280;74983;51.084;11.086;2024-03-08T00:54:14;100448.13;;;-0.77;83.39
84760;BME280;74983;51.084;11.086;2024-03-08T00:56:41;100450.81;;;-0.84;84.36
84760;BME280;74983;51.084;11.086;2024-03-08T00:59:07;100450.59;;;-0.72;84.58
84760;BME280;74983;51.084;11.086;2024-03-08T01:01:32;100451.41;;;-0.70;83.04
84760;BME280;74983;51.084;11.086;2024-03-08T01:03:57;100445.28;;;-0.62;83.06
84760;BME280;74983;51.084;11.086;2024-03-08T01:06:23;100442.81;;;-0.66;84.51
84760;BME280;74983;51.084;11.086;2024-03-08T01:08:48;100454.00;;;-0.72;83.94
84760;BME280;74983;51.084;11.086;2024-03-08T01:11:17;100449.13;;;-0.87;82.60
84760;BME280;74983;51.084;11.086;2024-03-08T01:13:43;100436.56;;;-0.99;83.34
84760;BME280;74983;51.084;11.086;2024-03-08T01:16:08;100424.78;;;-1.06;83.79
84760;BME280;74983;51.084;11.086;2024-03-08T01:18:33;100425.72;;;-1.12;82.51
84760;BME280;74983;51.084;11.086;2024-03-08T01:20:58;100428.38;;;-1.16;84.02
84760;BME280;74983;51.084;11.086;2024-03-08T01:23:24;100424.41;;;-1.34;83.23
84760;BME280;74983;51.084;11.086;2024-03-08T01:25:49;100417.72;;;-1.41;83.25
84760;BME280;74983;51.084;11.086;2024-03-08T01:28:21;100409.38;;;-1.50;84.69
84760;BME280;74983;51.084;11.086;2024-03-08T01:30:47;100414.47;;;-1.50;84.91
84760;BME280;74983;51.084;11.086;2024-03-08T01:33:12;100413.69;;;-1.54;83.90
84760;BME280;74983;51.084;11.086;2024-03-08T01:35:37;100412.75;;;-1.50;84.87
84760;BME280;74983;51.084;11.086;2024-03-08T01:38:06;100412.81;;;-1.53;84.47
84760;BME280;74983;51.084;11.086;2024-03-08T01:40:31;100414.66;;;-1.62;84.96
84760;BME280;74983;51.084;11.086;2024-03-08T01:42:56;100407.88;;;-1.65;85.27
84760;BME280;74983;51.084;11.086;2024-03-08T01:45:22;100404.59;;;-1.71;86.16
84760;BME280;74983;51.084;11.086;2024-03-08T01:47:47;100403.78;;;-1.73;86.45
84760;BME280;74983;51.084;11.086;2024-03-08T01:50:13;100395.22;;;-1.72;85.84
84760;BME280;74983;51.084;11.086;2024-03-08T01:52:39;100394.44;;;-1.76;86.89
84760;BME280;74983;51.084;11.086;2024-03-08T01:55:05;100389.28;;;-1.71;87.28
84760;BME280;74983;51.084;11.086;2024-03-08T01:57:32;100388.31;;;-1.64;87.12
84760;BME280;74983;51.084;11.086;2024-03-08T01:59:59;100388.31;;;-1.64;87.05
84760;BME280;74983;51.084;11.086;2024-03-08T02:36:31;100364.59;;;-1.69;87.84
84760;BME280;74983;51.084;11.086;2024-03-08T02:39:02;100363.41;;;-1.50;86.62
84760;BME280;74983;51.084;11.086;2024-03-08T02:41:27;100355.59;;;-1.43;85.95
84760;BME280;74983;51.084;11.086;2024-03-08T02:43:53;100352.22;;;-1.45;86.18
84760;BME280;74983;51.084;11.086;2024-03-08T02:46:18;100352.22;;;-1.43;85.56
84760;BME280;74983;51.084;11.086;2024-03-08T02:48:43;100354.06;;;-1.51;86.34
84760;BME280;74983;51.084;11.086;2024-03-08T02:51:09;100351.44;;;-1.47;85.86
84760;BME280;74983;51.084;11.086;2024-03-08T02:53:35;100348.94;;;-1.51;85.77
84760;BME280;74983;51.084;11.086;2024-03-08T02:56:01;100350.66;;;-1.50;86.65
84760;BME280;74983;51.084;11.086;2024-03-08T02:58:26;100341.31;;;-1.53;86.70
84760;BME280;74983;51.084;11.086;2024-03-08T03:00:51;100334.75;;;-1.67;86.38
84760;BME280;74983;51.084;11.086;2024-03-08T03:03:16;100338.25;;;-1.73;86.84
84760;BME280;74983;51.084;11.086;2024-03-08T03:05:41;100339.97;;;-1.73;86.81
84760;BME280;74983;51.084;11.086;2024-03-08T03:08:07;100335.72;;;-1.74;86.58
84760;BME280;74983;51.084;11.086;2024-03-08T03:10:34;100339.06;;;-1.69;86.56
84760;BME280;74983;51.084;11.086;2024-03-08T03:12:59;100331.59;;;-1.83;86.71
84760;BME280;74983;51.084;11.086;2024-03-08T03:15:24;100334.22;;;-1.86;86.75
84760;BME280;74983;51.084;11.086;2024-03-08T03:17:51;100328.41;;;-1.94;87.07
84760;BME280;74983;51.084;11.086;2024-03-08T03:20:19;100327.63;;;-2.00;86.76
84760;BME280;74983;51.084;11.086;2024-03-08T03:22:51;100329.38;;;-2.02;87.20
84760;BME280;74983;51.084;11.086;2024-03-08T03:25:20;100331.09;;;-2.04;86.97
84760;BME280;74983;51.084;11.086;2024-03-08T03:27:50;100331.75;;;-1.90;86.26
84760;BME280;74983;51.084;11.086;2024-03-08T03:30:15;100330.03;;;-1.91;86.17
84760;BME280;74983;51.084;11.086;2024-03-08T03:32:48;100331.75;;;-1.93;86.69
84760;BME280;74983;51.084;11.086;2024-03-08T03:35:14;100334.41;;;-1.98;86.96
84760;BME280;74983;51.084;11.086;2024-03-08T03:37:40;100341.22;;;-2.00;87.53
84760;BME280;74983;51.084;11.086;2024-03-08T03:40:08;100337.97;;;-2.08;86.92
84760;BME280;74983;51.084;11.086;2024-03-08T03:42:33;100335.44;;;-2.11;86.89
84760;BME280;74983;51.084;11.086;2024-03-08T03:44:59;100334.66;;;-2.14;87.74
84760;BME280;74983;51.084;11.086;2024-03-08T03:47:24;100328.75;;;-2.16;86.91
84760;BME280;74983;51.084;11.086;2024-03-08T03:49:49;100332.22;;;-2.22;87.99
84760;BME280;74983;51.084;11.086;2024-03-08T03:52:15;100324.66;;;-2.30;87.37
84760;BME280;74983;51.084;11.086;2024-03-08T03:54:40;100323.00;;;-2.34;87.66
84760;BME280;74983;51.084;11.086;2024-03-08T03:57:05;100326.38;;;-2.30;87.99
84760;BME280;74983;51.084;11.086;2024-03-08T03:59:32;100320.47;;;-2.34;88.64
84760;BME280;74983;51.084;11.086;2024-03-08T04:01:58;100317.97;;;-2.37;88.10
84760;BME280;74983;51.084;11.086;2024-03-08T04:04:23;100312.84;;;-2.35;87.87
84760;BME280;74983;51.084;11.086;2024-03-08T04:06:49;100313.63;;;-2.30;88.65
84760;BME280;74983;51.084;11.086;2024-03-08T04:09:16;100310.34;;;-2.38;88.60
84760;BME280;74983;51.084;11.086;2024-03-08T04:11:44;100311.19;;;-2.38;88.59
84760;BME280;74983;51.084;11.086;2024-03-08T04:14:09;100312.66;;;-2.23;88.39
84760;BME280;74983;51.084;11.086;2024-03-08T04:16:35;100306.81;;;-2.30;88.82
84760;BME280;74983;51.084;11.086;2024-03-08T04:19:00;100313.69;;;-2.35;87.84
84760;BME280;74983;51.084;11.086;2024-03-08T04:21:30;100315.44;;;-2.38;87.76
84760;BME280;74983;51.084;11.086;2024-03-08T04:23:55;100307.03;;;-2.45;89.17
84760;BME280;74983;51.084;11.086;2024-03-08T04:26:20;100310.41;;;-2.41;90.06
84760;BME280;74983;51.084;11.086;2024-03-08T04:28:45;100302.69;;;-2.38;90.38
84760;BME280;74983;51.084;11.086;2024-03-08T04:31:11;100307.78;;;-2.37;91.00
84760;BME280;74983;51.084;11.086;2024-03-08T04:33:36;100301.81;;;-2.36;89.53
84760;BME280;74983;51.084;11.086;2024-03-08T04:36:02;100303.59;;;-2.42;89.87
84760;BME280;74983;51.084;11.086;2024-03-08T04:38:29;100301.00;;;-2.38;90.55
84760;BME280;74983;51.084;11.086;2024-03-08T04:40:56;100302.59;;;-2.31;90.01
84760;BME280;74983;51.084;11.086;2024-03-08T04:43:22;100301.78;;;-2.34;89.75
84760;BME280;74983;51.084;11.086;2024-03-08T04:45:50;100305.19;;;-2.35;89.87
84760;BME280;74983;51.084;11.086;2024-03-08T04:48:16;100299.16;;;-2.30;89.21
84760;BME280;74983;51.084;11.086;2024-03-08T04:50:41;100295.91;;;-2.38;90.06
84760;BME280;74983;51.084;11.086;2024-03-08T04:53:06;100289.94;;;-2.38;90.18
84760;BME280;74983;51.084;11.086;2024-03-08T04:55:33;100289.19;;;-2.45;89.94
84760;BME280;74983;51.084;11.086;2024-03-08T04:57:59;100292.47;;;-2.37;89.95
84760;BME280;74983;51.084;11.086;2024-03-08T05:00:24;100293.31;;;-2.36;89.17
84760;BME280;74983;51.084;11.086;2024-03-08T05:02:50;100298.50;;;-2.42;90.54
84760;BME280;74983;51.084;11.086;2024-03-08T05:05:18;100302.00;;;-2.48;90.25
84760;BME280;74983;51.084;11.086;2024-03-08T05:07:43;100293.41;;;-2.42;90.13
84760;BME280;74983;51.084;11.086;2024-03-08T05:10:10;100295.03;;;-2.38;91.01
84760;BME280;74983;51.084;11.086;2024-03-08T05:12:36;100291.59;;;-2.34;90.88
84760;BME280;74983;51.084;11.086;2024-03-08T05:15:04;100295.03;;;-2.38;90.59
84760;BME280;74983;51.084;11.086;2024-03-08T05:17:30;100293.28;;;-2.35;89.84
84760;BME280;74983;51.084;11.086;2024-03-08T05:19:55;100294.19;;;-2.36;90.19
84760;BME280;74983;51.084;11.086;2024-03-08T05:22:20;100295.03;;;-2.38;90.21
84760;BME280;74983;51.084;11.086;2024-03-08T05:24:46;100295.94;;;-2.39;90.21
84760;BME280;74983;51.084;11.086;2024-03-08T05:27:11;100295.09;;;-2.41;90.18
84760;BME280;74983;51.084;11.086;2024-03-08T05:29:38;100297.56;;;-2.37;90.11
84760;BME280;74983;51.084;11.086;2024-03-08T05:32:03;100298.41;;;-2.36;90.16
84760;BME280;74983;51.084;11.086;2024-03-08T05:34:29;100296.00;;;-2.45;89.92
84760;BME280;74983;51.084;11.086;2024-03-08T05:36:54;100291.94;;;-2.58;90.27
84760;BME280;74983;51.084;11.086;2024-03-08T05:39:20;100290.25;;;-2.59;89.11
84760;BME280;74983;51.084;11.086;2024-03-08T05:41:45;100292.91;;;-2.68;89.45
84760;BME280;74983;51.084;11.086;2024-03-08T05:44:12;100287.97;;;-2.77;89.22
84760;BME280;74983;51.084;11.086;2024-03-08T05:46:38;100283.75;;;-2.81;89.10
84760;BME280;74983;51.084;11.086;2024-03-08T05:49:04;100284.53;;;-2.76;89.31
84760;BME280;74983;51.084;11.086;2024-03-08T05:51:34;100282.81;;;-2.74;88.60
84760;BME280;74983;51.084;11.086;2024-03-08T05:54:04;100290.28;;;-2.61;88.78
84760;BME280;74983;51.084;11.086;2024-03-08T05:56:30;100288.75;;;-2.74;88.93
84760;BME280;74983;51.084;11.086;2024-03-08T05:58:56;100294.75;;;-2.78;89.10
84760;BME280;74983;51.084;11.086;2024-03-08T06:01:21;100290.53;;;-2.80;90.03
84760;BME280;74983;51.084;11.086;2024-03-08T06:03:47;100294.88;;;-2.88;89.02
84760;BME280;74983;51.084;11.086;2024-03-08T06:06:14;100288.59;;;-2.63;91.08
84760;BME280;74983;51.084;11.086;2024-03-08T06:08:39;100290.19;;;-2.53;90.28
84760;BME280;74983;51.084;11.086;2024-03-08T06:11:05;100292.56;;;-2.41;90.60
84760;BME280;74983;51.084;11.086;2024-03-08T06:13:31;100286.47;;;-2.33;90.82
84760;BME280;74983;51.084;11.086;2024-03-08T06:15:57;100292.28;;;-2.24;89.75
84760;BME280;74983;51.084;11.086;2024-03-08T06:18:22;100287.84;;;-2.12;90.27
84760;BME280;74983;51.084;11.086;2024-03-08T06:20:47;100293.47;;;-1.90;90.00
84760;BME280;74983;51.084;11.086;2024-03-08T06:23:13;100287.44;;;-1.88;88.79
84760;BME280;74983;51.084;11.086;2024-03-08T06:25:42;100289.03;;;-1.81;88.35
84760;BME280;74983;51.084;11.086;2024-03-08T06:28:08;100292.31;;;-1.73;88.93
84760;BME280;74983;51.084;11.086;2024-03-08T06:30:33;100290.50;;;-1.66;88.86
84760;BME280;74983;51.084;11.086;2024-03-08T06:32:59;100295.47;;;-1.59;88.79
84760;BME280;74983;51.084;11.086;2024-03-08T06:35:25;100296.09;;;-1.46;87.68
84760;BME280;74983;51.084;11.086;2024-03-08T06:37:50;100290.00;;;-1.39;86.89
84760;BME280;74983;51.084;11.086;2024-03-08T06:40:15;100288.19;;;-1.33;87.81
84760;BME280;74983;51.084;11.086;2024-03-08T06:42:41;100286.97;;;-1.15;87.02
84760;BME280;74983;51.084;11.086;2024-03-08T06:45:07;100286.06;;;-1.11;87.96
84760;BME280;74983;51.084;11.086;2024-03-08T06:47:34;100287.50;;;-0.98;87.23
84760;BME280;74983;51.084;11.086;2024-03-08T06:49:59;100279.47;;;-0.81;87.32
84760;BME280;74983;51.084;11.086;2024-03-08T06:52:25;100277.81;;;-0.44;85.80
84760;BME280;74983;51.084;11.086;2024-03-08T06:54:50;100272.06;;;-0.17;84.67
84760;BME280;74983;51.084;11.086;2024-03-08T06:57:17;100273.56;;;-0.09;84.59
84760;BME280;74983;51.084;11.086;2024-03-08T06:59:42;100262.41;;;0.29;84.00
84760;BME280;74983;51.084;11.086;2024-03-08T07:02:08;100273.31;;;0.36;83.58
84760;BME280;74983;51.084;11.086;2024-03-08T07:04:36;100261.13;;;0.45;83.49
84760;BME280;74983;51.084;11.086;2024-03-08T07:07:06;100263.78;;;0.41;83.75
84760;BME280;74983;51.084;11.086;2024-03-08T07:09:35;100263.03;;;0.37;83.52
84760;BME280;74983;51.084;11.086;2024-03-08T07:12:01;100254.53;;;0.67;82.34
84760;BME280;74983;51.084;11.086;2024-03-08T07:14:27;100253.72;;;0.97;81.50
84760;BME280;74983;51.084;11.086;2024-03-08T07:16:52;100249.25;;;1.04;80.65
84760;BME280;74983;51.084;11.086;2024-03-08T07:19:17;100248.97;;;1.13;80.83
84760;BME280;74983;51.084;11.086;2024-03-08T07:21:44;100245.16;;;1.54;79.25
84760;BME280;74983;51.084;11.086;2024-03-08T07:24:10;100246.66;;;1.87;78.70
84760;BME280;74983;51.084;11.086;2024-03-08T07:26:54;100239.28;;;2.04;77.43
84760;BME280;74983;51.084;11.086;2024-03-08T07:29:21;100246.94;;;2.05;76.47
84760;BME280;74983;51.084;11.086;2024-03-08T07:31:46;100243.22;;;2.14;76.61
84760;BME280;74983;51.084;11.086;2024-03-08T07:34:34;100243.31;;;2.60;75.50
84760;BME280;74983;51.084;11.086;2024-03-08T07:36:59;100241.66;;;2.59;75.28
84760;BME280;74983;51.084;11.086;2024-03-08T07:39:24;100239.44;;;2.73;74.43
84760;BME280;74983;51.084;11.086;2024-03-08T07:41:49;100227.13;;;3.27;72.23
84760;BME280;74983;51.084;11.086;2024-03-08T07:44:18;100225.41;;;3.50;72.26
84760;BME280;74983;51.084;11.086;2024-03-08T07:46:43;100224.44;;;3.74;70.93
84760;BME280;74983;51.084;11.086;2024-03-08T07:49:08;100216.75;;;4.14;70.03
84760;BME280;74983;51.084;11.086;2024-03-08T07:51:37;100211.34;;;4.00;69.76
84760;BME280;74983;51.084;11.086;2024-03-08T07:54:03;100205.84;;;3.87;69.66
84760;BME280;74983;51.084;11.086;2024-03-08T07:56:32;100208.09;;;3.75;70.00
84760;BME280;74983;51.084;11.086;2024-03-08T07:58:57;100207.53;;;4.08;70.48
84760;BME280;74983;51.084;11.086;2024-03-08T08:01:23;100209.53;;;3.82;70.82
84760;BME280;74983;51.084;11.086;2024-03-08T08:03:48;100208.25;;;4.12;69.73
84760;BME280;74983;51.084;11.086;2024-03-08T08:06:19;100207.47;;;3.90;71.35
84760;BME280;74983;51.084;11.086;2024-03-08T08:08:44;100199.38;;;3.99;71.15
84760;BME280;74983;51.084;11.086;2024-03-08T08:11:10;100196.97;;;3.94;72.35
84760;BME280;74983;51.084;11.086;2024-03-08T08:13:40;100196.22;;;3.92;71.91
84760;BME280;74983;51.084;11.086;2024-03-08T08:16:08;100193.75;;;4.29;70.92
84760;BME280;74983;51.084;11.086;2024-03-08T08:18:34;100193.78;;;4.09;70.78
84760;BME280;74983;51.084;11.086;2024-03-08T08:21:00;100185.31;;;4.46;69.96
84760;BME280;74983;51.084;11.086;2024-03-08T08:23:25;100186.47;;;4.39;70.08
84760;BME280;74983;51.084;11.086;2024-03-08T08:25:51;100181.53;;;4.14;72.08
84760;BME280;74983;51.084;11.086;2024-03-08T08:28:17;100179.78;;;4.35;70.47
84760;BME280;74983;51.084;11.086;2024-03-08T08:30:43;100177.34;;;4.71;70.01
84760;BME280;74983;51.084;11.086;2024-03-08T08:33:08;100187.06;;;4.64;69.63
84760;BME280;74983;51.084;11.086;2024-03-08T08:35:34;100183.13;;;5.13;69.09
84760;BME280;74983;51.084;11.086;2024-03-08T08:37:59;100174.22;;;4.83;68.74
84760;BME280;74983;51.084;11.086;2024-03-08T08:40:25;100173.69;;;4.75;68.56
84760;BME280;74983;51.084;11.086;2024-03-08T08:42:51;100179.22;;;4.86;69.13
84760;BME280;74983;51.084;11.086;2024-03-08T08:45:18;100172.22;;;4.69;69.22
84760;BME280;74983;51.084;11.086;2024-03-08T08:47:44;100172.22;;;4.69;69.61
84760;BME280;74983;51.084;11.086;2024-03-08T08:50:10;100161.91;;;5.25;68.45
84760;BME280;74983;51.084;11.086;2024-03-08T08:52:37;100157.38;;;5.11;67.63
84760;BME280;74983;51.084;11.086;2024-03-08T08:55:03;100155.38;;;4.99;69.84
84760;BME280;74983;51.084;11.086;2024-03-08T08:57:29;100152.44;;;5.07;68.43
84760;BME280;74983;51.084;11.086;2024-03-08T08:59:55;100161.34;;;5.90;65.19
84760;BME280;74983;51.084;11.086;2024-03-08T09:02:21;100142.34;;;5.91;65.94
84760;BME280;74983;51.084;11.086;2024-03-08T09:04:49;100145.22;;;6.19;64.94
84760;BME280;74983;51.084;11.086;2024-03-08T09:07:15;100142.59;;;6.36;64.09
84760;BME280;74983;51.084;11.086;2024-03-08T09:09:43;100140.91;;;6.02;65.25
84760;BME280;74983;51.084;11.086;2024-03-08T09:12:09;100130.69;;;5.82;64.82
84760;BME280;74983;51.084;11.086;2024-03-08T09:14:38;100137.81;;;6.28;64.00
84760;BME280;74983;51.084;11.086;2024-03-08T09:17:03;100138.50;;;6.80;62.33
84760;BME280;74983;51.084;11.086;2024-03-08T09:19:29;100122.47;;;6.73;61.48
84760;BME280;74983;51.084;11.086;2024-03-08T09:21:54;100129.13;;;6.62;62.42
84760;BME280;74983;51.084;11.086;2024-03-08T09:24:19;100118.59;;;7.43;60.70
84760;BME280;74983;51.084;11.086;2024-03-08T09:26:45;100110.97;;;7.99;59.22
84760;BME280;74983;51.084;11.086;2024-03-08T09:29:11;100115.91;;;7.60;59.73
84760;BME280;74983;51.084;11.086;2024-03-08T09:31:37;100115.38;;;7.83;58.96
84760;BME280;74983;51.084;11.086;2024-03-08T09:34:03;100107.34;;;7.87;57.68
84760;BME280;74983;51.084;11.086;2024-03-08T09:36:28;100104.78;;;8.02;59.15
84760;BME280;74983;51.084;11.086;2024-03-08T09:38:55;100097.44;;;8.24;56.81
84760;BME280;74983;51.084;11.086;2024-03-08T09:41:20;100095.31;;;7.12;62.07
84760;BME280;74983;51.084;11.086;2024-03-08T09:43:46;100087.34;;;7.01;62.67
84760;BME280;74983;51.084;11.086;2024-03-08T09:46:12;100092.72;;;7.57;59.81
84760;BME280;74983;51.084;11.086;2024-03-08T09:48:39;100071.53;;;8.22;58.13
84760;BME280;74983;51.084;11.086;2024-03-08T09:51:07;100069.81;;;7.35;60.30
84760;BME280;74983;51.084;11.086;2024-03-08T09:53:33;100062.31;;;7.15;59.97
84760;BME280;74983;51.084;11.086;2024-03-08T09:55:58;100058.47;;;7.95;57.72
84760;BME280;74983;51.084;11.086;2024-03-08T09:58:24;100061.25;;;7.92;57.33
84760;BME280;74983;51.084;11.086;2024-03-08T10:00:59;100058.31;;;7.55;57.73
84760;BME280;74983;51.084;11.086;2024-03-08T10:03:27;100045.63;;;8.36;57.08
84760;BME280;74983;51.084;11.086;2024-03-08T10:05:52;100042.34;;;8.61;54.45
84760;BME280;74983;51.084;11.086;2024-03-08T10:08:21;100043.50;;;8.29;55.68
84760;BME280;74983;51.084;11.086;2024-03-08T10:10:47;100033.56;;;7.79;56.78
84760;BME280;74983;51.084;11.086;2024-03-08T10:13:12;100034.47;;;8.20;57.38
84760;BME280;74983;51.084;11.086;2024-03-08T10:15:39;100032.03;;;8.73;54.44
84760;BME280;74983;51.084;11.086;2024-03-08T10:18:05;100037.47;;;8.28;56.62
84760;BME280;74983;51.084;11.086;2024-03-08T10:20:31;100021.19;;;8.93;55.14
84760;BME280;74983;51.084;11.086;2024-03-08T10:23:03;100017.72;;;8.12;56.36
84760;BME280;74983;51.084;11.086;2024-03-08T10:25:33;100021.25;;;9.06;56.26
84760;BME280;74983;51.084;11.086;2024-03-08T10:27:59;100014.59;;;9.02;55.39
84760;BME280;74983;51.084;11.086;2024-03-08T10:30:24;100007.53;;;9.04;53.78
84760;BME280;74983;51.084;11.086;2024-03-08T10:32:50;100012.81;;;9.02;53.58
84760;BME280;74983;51.084;11.086;2024-03-08T10:35:17;100009.59;;;8.99;55.50
84760;BME280;74983;51.084;11.086;2024-03-08T10:37:46;100006.88;;;8.74;56.38
84760;BME280;74983;51.084;11.086;2024-03-08T10:40:17;100002.03;;;9.08;54.52
84760;BME280;74983;51.084;11.086;2024-03-08T10:42:52;100019.38;;;8.41;56.26
84760;BME280;74983;51.084;11.086;2024-03-08T10:45:31;100001.59;;;9.02;55.18
84760;BME280;74983;51.084;11.086;2024-03-08T10:50:47;99998.88;;;8.64;56.87
84760;BME280;74983;51.084;11.086;2024-03-08T10:53:15;99997.88;;;8.39;58.00
84760;BME280;74983;51.084;11.086;2024-03-08T10:55:43;99991.78;;;8.40;57.25
84760;BME280;74983;51.084;11.086;2024-03-08T10:58:09;99986.72;;;8.51;58.03
84760;BME280;74983;51.084;11.086;2024-03-08T11:00:36;99982.50;;;8.76;57.11
84760;BME280;74983;51.084;11.086;2024-03-08T11:03:02;99981.34;;;9.07;57.26
84760;BME280;74983;51.084;11.086;2024-03-08T11:05:36;99983.25;;;8.91;56.63
84760;BME280;74983;51.084;11.086;2024-03-08T11:08:24;99980.91;;;9.00;55.11
84760;BME280;74983;51.084;11.086;2024-03-08T11:10:53;99983.66;;;8.85;55.44
84760;BME280;74983;51.084;11.086;2024-03-08T11:15:59;99969.88;;;9.61;53.68
84760;BME280;74983;51.084;11.086;2024-03-08T11:18:26;99973.09;;;9.27;55.20
84760;BME280;74983;51.084;11.086;2024-03-08T11:20:54;99972.81;;;9.05;53.72
84760;BME280;74983;51.084;11.086;2024-03-08T11:23:22;99967.53;;;9.19;54.49
84760;BME280;74983;51.084;11.086;2024-03-08T11:25:48;99962.19;;;9.60;54.09
84760;BME280;74983;51.084;11.086;2024-03-08T11:28:18;99956.25;;;9.58;52.11
84760;BME280;74983;51.084;11.086;2024-03-08T11:33:27;99952.69;;;9.21;53.83
84760;BME280;74983;51.084;11.086;2024-03-08T11:36:02;99933.78;;;9.06;54.30
84760;BME280;74983;51.084;11.086;2024-03-08T11:38:29;99953.41;;;8.84;54.08
84760;BME280;74983;51.084;11.086;2024-03-08T11:40:57;99939.16;;;9.03;54.91
84760;BME280;74983;51.084;11.086;2024-03-08T11:43:22;99921.94;;;9.15;55.79
84760;BME280;74983;51.084;11.086;2024-03-08T11:45:47;99926.50;;;9.74;52.12
84760;BME280;74983;51.084;11.086;2024-03-08T11:48:13;99919.72;;;9.84;53.75
84760;BME280;74983;51.084;11.086;2024-03-08T11:50:38;99910.00;;;10.11;52.72
84760;BME280;74983;51.084;11.086;2024-03-08T11:53:03;99906.50;;;10.12;51.96
84760;BME280;74983;51.084;11.086;2024-03-08T11:55:31;99912.56;;;9.13;54.06
84760;BME280;74983;51.084;11.086;2024-03-08T11:58:03;99906.09;;;8.93;54.78
84760;BME280;74983;51.084;11.086;2024-03-08T12:00:29;99901.78;;;8.40;57.01
84760;BME280;74983;51.084;11.086;2024-03-08T12:05:28;99899.03;;;8.15;58.05
84760;BME280;74983;51.084;11.086;2024-03-08T12:07:57;99904.22;;;8.29;58.18
84760;BME280;74983;51.084;11.086;2024-03-08T12:10:23;99892.06;;;8.44;57.43
84760;BME280;74983;51.084;11.086;2024-03-08T12:12:54;99896.63;;;8.53;57.40
84760;BME280;74983;51.084;11.086;2024-03-08T12:15:23;99896.84;;;8.50;57.89
84760;BME280;74983;51.084;11.086;2024-03-08T12:17:50;99892.69;;;8.60;57.82
84760;BME280;74983;51.084;11.086;2024-03-08T12:20:17;99879.19;;;8.55;58.36
84760;BME280;74983;51.084;11.086;2024-03-08T12:22:44;99875.34;;;8.48;56.56
84760;BME280;74983;51.084;11.086;2024-03-08T12:25:13;99873.31;;;8.26;57.41
84760;BME280;74983;51.084;11.086;2024-03-08T12:27:39;99867.31;;;8.38;58.34
84760;BME280;74983;51.084;11.086;2024-03-08T12:30:25;99852.44;;;8.67;57.28
84760;BME280;74983;51.084;11.086;2024-03-08T12:32:57;99852.88;;;8.86;57.40
84760;BME280;74983;51.084;11.086;2024-03-08T12:35:24;99849.03;;;8.79;56.27
84760;BME280;74983;51.084;11.086;2024-03-08T12:37:52;99863.25;;;8.61;57.62
84760;BME280;74983;51.084;11.086;2024-03-08T12:40:18;99849.81;;;8.54;56.62
84760;BME280;74983;51.084;11.086;2024-03-08T12:42:44;99843.53;;;8.71;57.33
84760;BME280;74983;51.084;11.086;2024-03-08T12:45:12;99842.53;;;8.47;57.67
84760;BME280;74983;51.084;11.086;2024-03-08T12:47:37;99849.34;;;8.74;56.50
84760;BME280;74983;51.084;11.086;2024-03-08T12:50:03;99833.25;;;8.69;56.68
84760;BME280;74983;51.084;11.086;2024-03-08T12:52:28;99832.19;;;8.59;57.55
84760;BME280;74983;51.084;11.086;2024-03-08T12:54:55;99819.34;;;8.83;57.26
84760;BME280;74983;51.084;11.086;2024-03-08T12:57:20;99826.94;;;9.11;56.88
84760;BME280;74983;51.084;11.086;2024-03-08T12:59:46;99818.81;;;9.16;56.32
84760;BME280;74983;51.084;11.086;2024-03-08T13:02:11;99815.41;;;9.15;56.40
84760;BME280;74983;51.084;11.086;2024-03-08T13:04:36;99811.03;;;8.90;55.84
84760;BME280;74983;51.084;11.086;2024-03-08T13:07:02;99800.75;;;8.89;56.70
84760;BME280;74983;51.084;11.086;2024-03-08T13:09:27;99795.75;;;8.98;56.99
84760;BME280;74983;51.084;11.086;2024-03-08T13:11:52;99789.94;;;8.95;57.36
84760;BME280;74983;51.084;11.086;2024-03-08T13:14:20;99792.75;;;8.92;57.21
84760;BME280;74983;51.084;11.086;2024-03-08T13:16:45;99786.41;;;9.08;58.07
84760;BME280;74983;51.084;11.086;2024-03-08T13:19:13;99780.91;;;8.88;57.09
84760;BME280;74983;51.084;11.086;2024-03-08T13:21:38;99768.31;;;9.07;56.98
84760;BME280;74983;51.084;11.086;2024-03-08T13:24:04;99772.78;;;9.18;57.33
84760;BME280;74983;51.084;11.086;2024-03-08T13:26:30;99770.97;;;9.43;57.01
84760;BME280;74983;51.084;11.086;2024-03-08T13:28:58;99776.81;;;9.34;56.13